Time;durP1;ratioP1;P1;durP2;ratioP2;P2;SDS_P1;SDS_P2;PMS_P1;PMS_P2;Temp;Humidity;BMP_temperature;BMP_pressure;BME280_temperature;BME280_humidity;BME280_pressure;Samples;Min_cycle;Max_cycle;Signal;HPM_P1;HPM_P2
2021/03/08 00:01:12;;;;;;;14.65;10.85;;;7.70;71.60;;;;;;4976285;28;20073;-83
2021/03/08 00:03:37;;;;;;;13.73;10.13;;;7.70;71.60;;;;;;4975858;28;20471;-82
2021/03/08 00:06:03;;;;;;;14.55;10.32;;;7.70;71.60;;;;;;4960603;28;20379;-83
2021/03/08 00:08:29;;;;;;;14.90;9.38;;;7.70;71.60;;;;;;4944402;28;20027;-83
2021/03/08 00:10:55;;;;;;;13.73;9.98;;;7.70;71.60;;;;;;4992697;28;20026;-83
2021/03/08 00:13:21;;;;;;;14.38;10.00;;;7.70;71.70;;;;;;4992252;28;20562;-83
2021/03/08 00:15:46;;;;;;;16.50;11.02;;;7.70;71.70;;;;;;4975919;28;20487;-83
2021/03/08 00:18:12;;;;;;;14.57;10.38;;;7.70;71.70;;;;;;4967909;28;20039;-81
2021/03/08 00:20:38;;;;;;;14.65;10.55;;;7.70;71.70;;;;;;4975042;28;20057;-83
2021/03/08 00:23:04;;;;;;;13.23;9.15;;;7.60;71.70;;;;;;4992048;28;20458;-83
2021/03/08 00:25:32;;;;;;;14.82;10.77;;;7.60;71.70;;;;;;4956029;28;20049;-84
2021/03/08 00:27:58;;;;;;;15.30;10.02;;;7.60;71.70;;;;;;4970318;28;20038;-84
2021/03/08 00:30:24;;;;;;;14.27;9.90;;;7.60;71.70;;;;;;4988417;28;20121;-84
2021/03/08 00:32:50;;;;;;;15.15;10.10;;;7.60;71.70;;;;;;4992377;28;20030;-84
2021/03/08 00:35:17;;;;;;;15.05;9.65;;;7.60;71.70;;;;;;4991481;28;20022;-84
2021/03/08 00:37:44;;;;;;;13.98;9.48;;;7.60;71.70;;;;;;4972312;28;20023;-84
2021/03/08 00:40:13;;;;;;;13.98;9.65;;;7.60;71.70;;;;;;4973474;28;20046;-84
2021/03/08 00:42:39;;;;;;;14.23;9.95;;;7.60;71.70;;;;;;4999000;28;20018;-84
2021/03/08 00:45:10;;;;;;;13.10;9.88;;;7.60;71.70;;;;;;4976105;28;20109;-84
2021/03/08 00:47:36;;;;;;;15.77;10.13;;;7.60;71.80;;;;;;4955617;28;20023;-84
2021/03/08 00:50:05;;;;;;;13.43;9.77;;;7.60;71.80;;;;;;4992232;28;20093;-84
2021/03/08 00:52:31;;;;;;;14.60;9.32;;;7.50;71.70;;;;;;4991528;28;20032;-84
2021/03/08 00:54:57;;;;;;;14.07;9.00;;;7.50;71.70;;;;;;4975605;28;20026;-83
2021/03/08 00:57:23;;;;;;;14.43;10.23;;;7.50;71.70;;;;;;4975989;28;20051;-84
2021/03/08 00:59:51;;;;;;;14.18;10.00;;;7.60;71.80;;;;;;4959657;28;20041;-83
2021/03/08 01:02:17;;;;;;;12.80;8.70;;;7.50;71.80;;;;;;4941923;28;20365;-83
2021/03/08 01:04:45;;;;;;;12.82;9.27;;;7.50;71.80;;;;;;4982924;28;20030;-82
2021/03/08 01:07:12;;;;;;;12.30;8.68;;;7.50;71.80;;;;;;4995230;28;20040;-83
2021/03/08 01:09:40;;;;;;;12.20;8.88;;;7.50;71.90;;;;;;4963494;28;20022;-83
2021/03/08 01:12:07;;;;;;;13.82;9.43;;;7.50;71.90;;;;;;4978754;28;20041;-84
2021/03/08 01:14:37;;;;;;;14.02;10.13;;;7.50;71.90;;;;;;4975980;28;20404;-84
2021/03/08 01:17:03;;;;;;;13.68;9.77;;;7.50;71.90;;;;;;4962122;28;20031;-85
2021/03/08 01:19:29;;;;;;;13.50;8.82;;;7.50;71.90;;;;;;4979047;28;20126;-83
2021/03/08 01:21:55;;;;;;;11.68;8.88;;;7.40;71.90;;;;;;4993196;28;20042;-84
2021/03/08 01:24:21;;;;;;;13.15;9.48;;;7.40;71.90;;;;;;4962854;28;20030;-84
2021/03/08 01:26:46;;;;;;;12.93;8.90;;;7.50;71.90;;;;;;4996115;28;20502;-84
2021/03/08 01:29:12;;;;;;;12.73;8.43;;;7.40;71.90;;;;;;4979009;28;20034;-82
2021/03/08 01:31:38;;;;;;;12.98;9.25;;;7.50;72.00;;;;;;4962290;28;20570;-83
2021/03/08 01:34:04;;;;;;;13.35;9.05;;;7.40;71.90;;;;;;4978582;28;20034;-84
2021/03/08 01:36:30;;;;;;;13.30;9.15;;;7.40;71.90;;;;;;4992586;28;20026;-83
2021/03/08 01:38:55;;;;;;;12.90;8.90;;;7.40;71.90;;;;;;4975563;28;20081;-84
2021/03/08 01:41:21;;;;;;;11.93;8.70;;;7.40;72.00;;;;;;4994821;28;20045;-83
2021/03/08 01:43:47;;;;;;;12.57;8.88;;;7.40;72.00;;;;;;4946164;28;20031;-84
2021/03/08 01:46:12;;;;;;;13.35;9.50;;;7.40;72.00;;;;;;4992323;28;20058;-83
2021/03/08 01:48:38;;;;;;;14.90;10.18;;;7.40;72.60;;;;;;4962406;28;20081;-84
2021/03/08 01:51:06;;;;;;;12.38;8.80;;;7.40;72.00;;;;;;4978525;28;20526;-83
2021/03/08 01:53:35;;;;;;;14.10;9.50;;;7.40;72.00;;;;;;4978503;28;20019;-83
2021/03/08 01:56:02;;;;;;;13.25;9.27;;;7.40;72.10;;;;;;4992007;28;20076;-83
2021/03/08 01:58:27;;;;;;;13.32;9.50;;;7.40;72.10;;;;;;4978388;28;20453;-82
2021/03/08 02:00:53;;;;;;;13.30;9.52;;;7.40;72.10;;;;;;4977847;28;20113;-83
2021/03/08 02:03:19;;;;;;;13.02;9.00;;;7.40;72.10;;;;;;4994564;28;20092;-83
2021/03/08 02:05:46;;;;;;;13.13;9.32;;;7.40;72.10;;;;;;4964522;28;20035;-83
2021/03/08 02:08:15;;;;;;;13.80;9.30;;;7.30;72.00;;;;;;4967118;28;20030;-83
2021/03/08 02:10:42;;;;;;;11.95;8.98;;;7.30;72.10;;;;;;4991822;28;20034;-83
2021/03/08 02:13:11;;;;;;;14.05;9.30;;;7.30;72.10;;;;;;4993239;28;20037;-83
2021/03/08 02:16:06;;;;;;;15.10;10.18;;;7.30;72.10;;;;;;4968428;28;20042;-83
2021/03/08 02:18:39;;;;;;;13.73;8.98;;;7.30;72.10;;;;;;4994785;28;20042;-83
2021/03/08 02:21:24;;;;;;;11.77;8.75;;;7.30;72.10;;;;;;4993696;28;20044;-83
2021/03/08 02:24:21;;;;;;;12.98;9.23;;;7.30;72.20;;;;;;4993855;28;20041;-83
2021/03/08 02:27:09;;;;;;;12.75;8.20;;;7.30;72.20;;;;;;4985114;28;20027;-84
2021/03/08 02:29:50;;;;;;;12.45;8.50;;;7.30;72.20;;;;;;4991347;28;20509;-84
2021/03/08 02:32:32;;;;;;;13.07;9.13;;;7.30;72.20;;;;;;4993806;28;20057;-83
2021/03/08 02:35:09;;;;;;;11.38;8.57;;;7.20;72.20;;;;;;4971466;28;20034;-83
2021/03/08 02:37:54;;;;;;;12.73;8.75;;;7.20;72.20;;;;;;4986239;28;20081;-83
2021/03/08 02:40:25;;;;;;;14.63;9.57;;;7.20;72.20;;;;;;4977325;28;20168;-83
2021/03/08 02:42:55;;;;;;;11.45;7.82;;;7.20;72.20;;;;;;4966706;28;20073;-83
2021/03/08 02:45:26;;;;;;;13.10;9.27;;;7.20;72.20;;;;;;4977527;28;20459;-83
2021/03/08 02:47:53;;;;;;;13.20;9.00;;;7.20;72.20;;;;;;4977339;28;20022;-83
2021/03/08 02:50:21;;;;;;;14.93;9.95;;;7.20;72.20;;;;;;4971765;28;20052;-83
2021/03/08 02:52:54;;;;;;;13.15;9.20;;;7.20;72.20;;;;;;4993487;28;20113;-83
2021/03/08 02:55:24;;;;;;;15.07;9.95;;;7.20;72.90;;;;;;4974211;28;20045;-83
2021/03/08 02:57:52;;;;;;;13.90;9.65;;;7.20;72.20;;;;;;4980612;28;20023;-83
2021/03/08 03:00:19;;;;;;;14.35;10.10;;;7.20;72.20;;;;;;4989869;28;20117;-84
2021/03/08 03:02:46;;;;;;;14.98;10.15;;;7.20;72.20;;;;;;4945467;28;20026;-83
2021/03/08 03:05:14;;;;;;;12.55;8.88;;;7.20;72.20;;;;;;4993358;28;20157;-82
2021/03/08 03:07:48;;;;;;;13.63;9.32;;;7.20;72.20;;;;;;4977046;28;20028;-83
2021/03/08 03:10:15;;;;;;;14.05;9.90;;;7.20;72.30;;;;;;4993423;28;20042;-83
2021/03/08 03:12:45;;;;;;;16.52;10.40;;;7.20;72.30;;;;;;4963913;28;20467;-83
2021/03/08 03:15:13;;;;;;;14.00;9.02;;;7.20;72.30;;;;;;4976245;28;20399;-83
2021/03/08 03:17:41;;;;;;;13.57;9.27;;;7.10;72.20;;;;;;4990426;28;20031;-83
2021/03/08 03:20:12;;;;;;;12.93;9.27;;;7.20;72.30;;;;;;4976260;28;20031;-83
2021/03/08 03:22:40;;;;;;;14.48;10.38;;;7.10;72.30;;;;;;4990901;28;20109;-83
2021/03/08 03:25:06;;;;;;;14.55;9.93;;;7.10;72.20;;;;;;4976295;28;20049;-82
2021/03/08 03:27:33;;;;;;;14.82;9.88;;;7.10;72.20;;;;;;4976831;28;20057;-84
2021/03/08 03:30:00;;;;;;;14.98;10.48;;;7.10;72.30;;;;;;4975345;28;20026;-84
2021/03/08 03:32:27;;;;;;;14.57;10.50;;;7.10;72.30;;;;;;4973083;28;20030;-82
2021/03/08 03:34:54;;;;;;;14.52;10.52;;;7.10;72.30;;;;;;4965791;28;20530;-83
2021/03/08 03:37:24;;;;;;;15.35;9.50;;;7.10;72.30;;;;;;4976200;28;20386;-83
2021/03/08 03:39:50;;;;;;;15.20;10.13;;;7.10;72.30;;;;;;4973662;28;20062;-83
2021/03/08 03:42:17;;;;;;;15.85;11.38;;;7.10;72.30;;;;;;4976186;28;20490;-83
2021/03/08 03:44:43;;;;;;;14.65;9.45;;;7.10;72.30;;;;;;4976251;28;20077;-82
2021/03/08 03:47:11;;;;;;;17.38;11.07;;;7.10;72.30;;;;;;4975706;28;20030;-83
2021/03/08 03:49:37;;;;;;;16.63;10.98;;;7.10;72.40;;;;;;4976282;28;20034;-82
2021/03/08 03:52:04;;;;;;;15.50;10.50;;;7.10;72.40;;;;;;4975564;28;20376;-82
2021/03/08 03:54:30;;;;;;;15.70;10.93;;;7.10;72.40;;;;;;4976379;28;20571;-83
2021/03/08 03:56:59;;;;;;;13.88;9.93;;;7.00;73.00;;;;;;4967638;28;20030;-83
2021/03/08 03:59:33;;;;;;;17.08;11.32;;;7.10;72.40;;;;;;4972710;28;20023;-83
2021/03/08 04:02:01;;;;;;;16.13;10.88;;;7.10;72.40;;;;;;4971741;28;20034;-83
2021/03/08 04:04:39;;;;;;;13.90;9.75;;;7.10;72.40;;;;;;4976370;28;20081;-83
2021/03/08 04:07:07;;;;;;;15.65;11.25;;;7.10;72.40;;;;;;4992333;28;20026;-83
2021/03/08 04:09:35;;;;;;;15.82;11.10;;;7.10;72.40;;;;;;4976252;28;20034;-83
2021/03/08 04:12:03;;;;;;;16.05;10.07;;;7.00;72.40;;;;;;4970183;28;20042;-84
2021/03/08 04:14:33;;;;;;;16.38;10.35;;;7.00;72.40;;;;;;4991489;28;20037;-83
2021/03/08 04:17:00;;;;;;;16.80;11.70;;;7.00;72.40;;;;;;4980911;28;20038;-83
2021/03/08 04:19:30;;;;;;;15.68;10.93;;;7.00;72.40;;;;;;4961505;28;20027;-83
2021/03/08 04:22:04;;;;;;;15.77;10.95;;;7.00;72.40;;;;;;4995029;28;20472;-83
2021/03/08 04:24:32;;;;;;;14.43;9.73;;;7.00;72.40;;;;;;4992664;28;20030;-83
2021/03/08 04:27:05;;;;;;;15.70;11.32;;;7.00;72.40;;;;;;4976253;28;20105;-84
2021/03/08 04:29:39;;;;;;;16.40;11.25;;;7.00;72.40;;;;;;4992072;28;20026;-84
2021/03/08 04:32:07;;;;;;;15.30;10.10;;;7.00;72.50;;;;;;4972879;28;20027;-83
2021/03/08 04:34:35;;;;;;;15.82;10.65;;;7.00;72.40;;;;;;5001259;28;20459;-83
2021/03/08 04:37:01;;;;;;;13.90;10.25;;;7.00;72.50;;;;;;4980296;28;20026;-84
2021/03/08 04:39:29;;;;;;;15.57;10.73;;;6.90;72.40;;;;;;4973524;28;20027;-84
2021/03/08 04:41:56;;;;;;;14.77;9.90;;;6.90;72.40;;;;;;4965345;28;20073;-84
2021/03/08 04:44:22;;;;;;;16.48;10.93;;;7.00;72.50;;;;;;4995197;28;20545;-83
2021/03/08 04:46:50;;;;;;;15.50;11.13;;;6.90;72.40;;;;;;4987654;28;20143;-83
2021/03/08 04:49:17;;;;;;;15.75;10.60;;;7.00;72.50;;;;;;4995523;28;20085;-83
2021/03/08 04:51:46;;;;;;;15.98;11.00;;;6.90;72.40;;;;;;4979249;28;20038;-83
2021/03/08 04:54:12;;;;;;;14.15;9.75;;;6.90;73.10;;;;;;4981868;28;20034;-83
2021/03/08 04:56:39;;;;;;;16.70;11.23;;;6.90;72.40;;;;;;4978817;28;20045;-83
2021/03/08 04:59:05;;;;;;;16.00;10.73;;;6.90;72.50;;;;;;4957994;28;20596;-83
2021/03/08 05:01:33;;;;;;;14.90;10.40;;;6.90;72.40;;;;;;4985940;28;20038;-83
2021/03/08 05:04:01;;;;;;;13.40;9.93;;;6.90;72.50;;;;;;4979023;28;20038;-83
2021/03/08 05:06:29;;;;;;;16.13;10.75;;;6.90;72.50;;;;;;4978764;28;20030;-83
2021/03/08 05:08:57;;;;;;;15.77;10.77;;;6.90;72.50;;;;;;4996011;28;20026;-83
2021/03/08 05:11:23;;;;;;;15.95;10.50;;;6.90;72.50;;;;;;4994186;28;20034;-83
2021/03/08 05:13:51;;;;;;;14.98;9.93;;;6.90;72.50;;;;;;4977108;28;20031;-83
2021/03/08 05:16:19;;;;;;;14.93;10.05;;;6.90;72.50;;;;;;4993444;28;20073;-83
2021/03/08 05:18:48;;;;;;;15.60;10.63;;;6.90;72.50;;;;;;4994959;28;20042;-83
2021/03/08 05:21:15;;;;;;;16.10;10.45;;;6.90;72.50;;;;;;4978134;28;20022;-83
2021/03/08 05:23:45;;;;;;;14.75;9.95;;;6.90;72.50;;;;;;4994420;28;20491;-83
2021/03/08 05:26:11;;;;;;;15.80;10.57;;;6.90;72.60;;;;;;4980827;28;20509;-83
2021/03/08 05:28:38;;;;;;;14.43;10.18;;;6.90;72.60;;;;;;4961965;28;20478;-83
2021/03/08 05:31:06;;;;;;;15.60;11.30;;;6.90;72.60;;;;;;4977887;28;20534;-83
2021/03/08 05:33:33;;;;;;;14.45;9.70;;;6.90;72.60;;;;;;4958902;28;20121;-83
2021/03/08 05:36:00;;;;;;;14.43;9.15;;;6.90;72.60;;;;;;4967008;28;20046;-83
2021/03/08 05:38:28;;;;;;;15.85;11.18;;;6.90;72.60;;;;;;4978928;28;20431;-83
2021/03/08 05:41:22;;;;;;;16.40;10.60;;;6.90;72.60;;;;;;4978075;28;20042;-82
2021/03/08 05:43:51;;;;;;;14.43;10.32;;;6.90;72.60;;;;;;4992750;28;20121;-80
2021/03/08 05:46:41;;;;;;;16.02;11.48;;;6.90;72.50;;;;;;4977316;28;20030;-82
2021/03/08 05:49:31;;;;;;;13.02;8.73;;;6.90;72.60;;;;;;4978011;28;20023;-83
2021/03/08 05:52:25;;;;;;;12.95;9.30;;;6.90;72.60;;;;;;4987927;28;20157;-83
2021/03/08 05:55:11;;;;;;;15.38;10.07;;;6.80;72.60;;;;;;4991298;28;20434;-83
2021/03/08 05:57:52;;;;;;;15.65;10.18;;;6.80;72.70;;;;;;4994146;28;20049;-83
2021/03/08 06:00:56;;;;;;;14.52;9.88;;;6.80;72.60;;;;;;4992898;28;20038;-83
2021/03/08 06:03:55;;;;;;;15.15;9.55;;;6.80;72.70;;;;;;4976576;28;20061;-84
2021/03/08 06:06:48;;;;;;;14.50;10.65;;;6.80;72.70;;;;;;4990811;28;20097;-83
2021/03/08 06:09:26;;;;;;;15.00;9.70;;;6.80;72.70;;;;;;4991446;28;20062;-84
2021/03/08 06:11:57;;;;;;;13.50;9.50;;;6.80;72.70;;;;;;4993635;28;20026;-83
2021/03/08 06:14:28;;;;;;;14.23;9.10;;;6.80;72.70;;;;;;4992012;28;20109;-85
2021/03/08 06:16:54;;;;;;;14.43;10.27;;;6.80;72.70;;;;;;4995128;28;20463;-83
2021/03/08 06:19:22;;;;;;;13.95;9.68;;;6.80;72.70;;;;;;4977407;28;20044;-82
2021/03/08 06:21:49;;;;;;;13.75;9.68;;;6.80;72.70;;;;;;4993716;28;20049;-83
2021/03/08 06:24:15;;;;;;;15.68;11.20;;;6.80;72.70;;;;;;4957968;28;20023;-87
2021/03/08 06:26:43;;;;;;;13.95;9.80;;;6.80;72.70;;;;;;4960639;28;20034;-81
2021/03/08 06:29:09;;;;;;;13.40;9.77;;;6.80;72.70;;;;;;4972900;28;20149;-82
2021/03/08 06:31:36;;;;;;;13.82;9.98;;;6.80;72.70;;;;;;4976935;28;20034;-82
2021/03/08 06:34:02;;;;;;;16.02;10.40;;;6.90;72.80;;;;;;4961170;28;20117;-83
2021/03/08 06:36:31;;;;;;;14.35;10.13;;;6.80;72.70;;;;;;4993223;28;20041;-81
2021/03/08 06:38:57;;;;;;;14.80;10.20;;;6.80;72.70;;;;;;4993567;28;20022;-83
2021/03/08 06:41:22;;;;;;;14.32;9.70;;;6.80;72.70;;;;;;4977264;28;20497;-81
2021/03/08 06:43:48;;;;;;;14.80;10.50;;;6.80;72.70;;;;;;4996266;28;20055;-81
2021/03/08 06:46:15;;;;;;;14.25;9.85;;;6.80;72.70;;;;;;4969506;28;20094;-81
2021/03/08 06:48:42;;;;;;;14.98;10.00;;;6.80;72.70;;;;;;4963475;28;20069;-81
2021/03/08 06:51:10;;;;;;;14.07;9.93;;;6.90;72.80;;;;;;4994216;28;20045;-81
2021/03/08 06:53:36;;;;;;;14.30;9.75;;;6.90;72.80;;;;;;4995534;28;20150;-80
2021/03/08 06:56:21;;;;;;;13.77;10.02;;;6.90;72.80;;;;;;4977253;28;20058;-80
2021/03/08 06:59:12;;;;;;;14.07;10.13;;;6.80;72.80;;;;;;4989213;28;20034;-81
2021/03/08 07:01:39;;;;;;;14.70;10.15;;;6.90;72.80;;;;;;4974265;28;20920;-81
2021/03/08 07:04:16;;;;;;;15.15;10.15;;;6.90;72.70;;;;;;4992744;28;20030;-80
2021/03/08 07:06:42;;;;;;;12.95;9.90;;;6.90;72.80;;;;;;4992376;28;20101;-81
2021/03/08 07:09:11;;;;;;;14.88;10.27;;;6.90;72.80;;;;;;4976406;28;20466;-81
2021/03/08 07:11:37;;;;;;;15.73;10.35;;;6.90;72.90;;;;;;4993240;28;20030;-80
2021/03/08 07:14:21;;;;;;;16.48;11.35;;;6.90;72.80;;;;;;4991674;28;20026;-79
2021/03/08 07:16:47;;;;;;;15.52;10.80;;;6.90;72.90;;;;;;4993362;28;20060;-80
2021/03/08 07:19:12;;;;;;;13.63;10.10;;;6.90;72.80;;;;;;4992448;28;20031;-80
2021/03/08 07:21:38;;;;;;;13.57;9.95;;;6.90;72.80;;;;;;4991903;28;20030;-80
2021/03/08 07:24:16;;;;;;;15.85;10.45;;;6.90;72.90;;;;;;4992331;28;20038;-80
2021/03/08 07:26:50;;;;;;;14.45;10.40;;;6.90;72.90;;;;;;4989117;28;20035;-80
2021/03/08 07:29:18;;;;;;;14.15;9.45;;;6.90;72.90;;;;;;4979876;28;20065;-80
2021/03/08 07:31:49;;;;;;;15.75;10.75;;;6.90;72.80;;;;;;4978019;28;20018;-80
2021/03/08 07:34:15;;;;;;;13.82;10.05;;;6.90;72.90;;;;;;4992207;28;20022;-80
2021/03/08 07:36:59;;;;;;;16.17;11.40;;;6.90;72.90;;;;;;4990846;28;20025;-81
2021/03/08 07:39:25;;;;;;;15.00;10.60;;;6.90;72.90;;;;;;4954443;28;20038;-78
2021/03/08 07:41:57;;;;;;;15.35;10.57;;;6.90;73.00;;;;;;4971927;28;20092;-79
2021/03/08 07:44:30;;;;;;;15.50;10.65;;;6.90;72.90;;;;;;4987985;28;20497;-81
2021/03/08 07:46:58;;;;;;;14.98;10.80;;;6.90;72.90;;;;;;4956871;28;20415;-81
2021/03/08 07:49:37;;;;;;;15.70;10.40;;;6.90;72.90;;;;;;4976460;28;20125;-84
2021/03/08 07:52:10;;;;;;;14.90;10.88;;;7.00;73.10;;;;;;4976439;28;20464;-84
2021/03/08 07:54:58;;;;;;;15.45;10.60;;;7.00;72.90;;;;;;4993780;28;20030;-84
2021/03/08 07:57:26;;;;;;;14.60;10.02;;;7.00;73.00;;;;;;4976765;28;20085;-84
2021/03/08 07:59:53;;;;;;;14.20;10.25;;;7.00;72.90;;;;;;4981956;28;20027;-85
2021/03/08 08:02:19;;;;;;;15.20;10.88;;;7.00;72.90;;;;;;4977799;28;20045;-84
2021/03/08 08:04:45;;;;;;;17.75;11.80;;;7.00;72.90;;;;;;4992356;28;20030;-84
2021/03/08 08:07:13;;;;;;;15.32;11.05;;;7.00;73.00;;;;;;4976407;28;20049;-84
2021/03/08 08:09:43;;;;;;;16.48;10.80;;;7.10;73.00;;;;;;4973123;28;20062;-84
2021/03/08 08:12:22;;;;;;;16.05;11.50;;;7.00;73.00;;;;;;4990702;28;20117;-85
2021/03/08 08:14:50;;;;;;;15.45;10.93;;;7.10;73.10;;;;;;4996359;28;20050;-84
2021/03/08 08:17:20;;;;;;;15.05;11.00;;;7.10;72.90;;;;;;4977445;28;20041;-84
2021/03/08 08:19:47;;;;;;;16.73;11.50;;;7.10;72.90;;;;;;4996623;28;20023;-83
2021/03/08 08:22:24;;;;;;;15.23;10.88;;;7.10;73.00;;;;;;4979938;28;20483;-85
2021/03/08 08:24:54;;;;;;;17.13;11.43;;;7.10;73.00;;;;;;4996310;28;20861;-84
2021/03/08 08:27:21;;;;;;;18.00;12.23;;;7.20;73.00;;;;;;4997468;28;20026;-84
2021/03/08 08:29:49;;;;;;;16.60;11.05;;;7.20;73.00;;;;;;4986117;28;20019;-84
2021/03/08 08:32:15;;;;;;;16.67;11.45;;;7.20;73.00;;;;;;4996402;28;20038;-85
2021/03/08 08:34:47;;;;;;;14.88;11.25;;;7.20;73.00;;;;;;4996502;28;20451;-84
2021/03/08 08:37:23;;;;;;;15.65;11.27;;;7.20;73.00;;;;;;4991189;28;20027;-84
2021/03/08 08:39:51;;;;;;;14.98;11.20;;;7.20;73.00;;;;;;4995676;28;20030;-84
2021/03/08 08:42:20;;;;;;;18.52;13.07;;;7.20;73.00;;;;;;4978834;28;20072;-84
2021/03/08 08:44:47;;;;;;;16.20;11.80;;;7.20;73.00;;;;;;4996885;28;20506;-85
2021/03/08 08:47:22;;;;;;;16.90;11.80;;;7.30;73.10;;;;;;4993571;28;20460;-84
2021/03/08 08:49:49;;;;;;;;;;;7.30;73.10;;;;;;4995467;28;20033;-85
2021/03/08 08:52:16;;;;;;;16.45;10.63;;;7.30;73.00;;;;;;4979493;28;19914;-85
2021/03/08 08:54:53;;;;;;;14.40;9.95;;;7.30;72.90;;;;;;4972635;28;20034;-85
2021/03/08 08:57:20;;;;;;;15.57;10.57;;;7.30;73.10;;;;;;4994093;28;20515;-85
2021/03/08 08:59:49;;;;;;;17.60;11.65;;;7.30;73.10;;;;;;4979576;28;20050;-85
2021/03/08 09:02:21;;;;;;;16.40;11.73;;;7.30;73.10;;;;;;4995634;28;20096;-84
2021/03/08 09:04:47;;;;;;;18.17;11.98;;;7.40;73.20;;;;;;4993314;28;20128;-84
2021/03/08 09:07:29;;;;;;;15.70;10.88;;;7.40;73.10;;;;;;4995504;28;20030;-83
2021/03/08 09:09:59;;;;;;;16.05;11.40;;;7.40;73.30;;;;;;4995020;28;20093;-85
2021/03/08 09:12:27;;;;;;;16.23;11.05;;;7.40;73.20;;;;;;4977214;28;20048;-84
2021/03/08 09:14:55;;;;;;;15.82;11.15;;;7.40;73.10;;;;;;4994108;28;20022;-82
2021/03/08 09:17:29;;;;;;;16.20;12.00;;;7.40;73.10;;;;;;4995188;28;20034;-83
2021/03/08 09:19:55;;;;;;;18.02;11.45;;;7.50;73.20;;;;;;4987536;28;20035;-83
2021/03/08 09:22:24;;;;;;;17.15;11.30;;;7.50;73.10;;;;;;4989805;28;20498;-83
2021/03/08 09:24:52;;;;;;;16.50;11.32;;;7.50;73.10;;;;;;4993560;28;20107;-83
2021/03/08 09:27:35;;;;;;;18.38;12.10;;;7.60;73.10;;;;;;4984429;28;20080;-84
2021/03/08 09:30:11;;;;;;;17.67;11.55;;;7.60;73.10;;;;;;4995261;28;20105;-84
2021/03/08 09:32:53;;;;;;;15.80;10.93;;;7.60;73.10;;;;;;4985098;28;20030;-84
2021/03/08 09:35:25;;;;;;;16.73;11.73;;;7.60;73.10;;;;;;4977115;28;20388;-83
2021/03/08 09:37:54;;;;;;;16.23;11.23;;;7.70;73.10;;;;;;4987765;28;20034;-83
2021/03/08 09:40:22;;;;;;;18.55;11.90;;;7.70;73.00;;;;;;4994969;28;20022;-84
2021/03/08 09:42:49;;;;;;;17.05;11.77;;;7.70;73.00;;;;;;4978670;28;20376;-84
2021/03/08 09:45:16;;;;;;;16.20;11.55;;;7.70;73.00;;;;;;4993268;28;20030;-83
2021/03/08 09:47:43;;;;;;;16.45;11.52;;;7.70;73.00;;;;;;4983751;28;20033;-83
2021/03/08 09:50:09;;;;;;;16.98;12.30;;;7.80;73.00;;;;;;4994781;28;20031;-84
2021/03/08 09:52:37;;;;;;;17.27;12.35;;;7.80;73.00;;;;;;4982557;28;20081;-84
2021/03/08 09:55:08;;;;;;;18.02;12.60;;;7.80;73.00;;;;;;4994844;28;20027;-83
2021/03/08 09:57:36;;;;;;;18.65;12.55;;;7.90;73.10;;;;;;4991658;28;20113;-85
2021/03/08 10:00:10;;;;;;;16.73;11.52;;;7.90;73.00;;;;;;4971319;28;20037;-85
2021/03/08 10:02:37;;;;;;;19.73;13.18;;;7.90;73.00;;;;;;4990350;28;20039;-84
2021/03/08 10:05:13;;;;;;;17.17;12.32;;;7.90;73.00;;;;;;4966657;28;20027;-84
2021/03/08 10:07:51;;;;;;;16.35;11.88;;;8.00;73.00;;;;;;4993618;28;20029;-83
2021/03/08 10:10:17;;;;;;;17.90;12.02;;;8.00;73.10;;;;;;4994867;28;20129;-84
2021/03/08 10:12:43;;;;;;;16.85;12.13;;;8.00;73.00;;;;;;4994341;28;20105;-83
2021/03/08 10:15:11;;;;;;;18.30;11.73;;;8.00;73.00;;;;;;4994229;28;20133;-84
2021/03/08 10:17:59;;;;;;;16.73;12.02;;;8.10;73.10;;;;;;4962484;28;20031;-84
2021/03/08 10:20:29;;;;;;;19.13;12.70;;;8.10;73.10;;;;;;4978178;28;20026;-84
2021/03/08 10:22:55;;;;;;;18.30;12.20;;;8.20;73.00;;;;;;4977404;28;20565;-84
2021/03/08 10:25:26;;;;;;;18.13;13.15;;;8.20;73.00;;;;;;4974558;28;20041;-84
2021/03/08 10:28:03;;;;;;;18.25;12.85;;;8.20;73.10;;;;;;4987815;28;20041;-84
2021/03/08 10:30:31;;;;;;;18.55;11.80;;;8.30;73.10;;;;;;4994207;28;20060;-84
2021/03/08 10:33:10;;;;;;;19.40;12.80;;;8.30;73.10;;;;;;4974563;28;20455;-84
2021/03/08 10:35:43;;;;;;;16.58;11.82;;;8.40;73.10;;;;;;4993624;28;20039;-83
2021/03/08 10:38:10;;;;;;;19.10;12.13;;;8.40;73.10;;;;;;4994465;28;20035;-84
2021/03/08 10:40:36;;;;;;;17.98;12.35;;;8.40;73.00;;;;;;4993895;28;20471;-84
2021/03/08 10:43:03;;;;;;;18.58;12.13;;;8.50;73.00;;;;;;4977763;28;20563;-84
2021/03/08 10:45:29;;;;;;;17.58;11.57;;;8.50;73.00;;;;;;4985421;28;20391;-83
2021/03/08 10:48:09;;;;;;;19.08;12.20;;;8.60;73.00;;;;;;4992437;28;20027;-84
2021/03/08 10:50:58;;;;;;;15.70;11.52;;;8.60;73.10;;;;;;4993503;28;20087;-83
2021/03/08 10:53:24;;;;;;;18.25;11.30;;;8.70;73.00;;;;;;4994970;28;20030;-83
2021/03/08 10:55:52;;;;;;;17.15;11.82;;;8.70;72.90;;;;;;4993313;28;20045;-84
2021/03/08 10:58:33;;;;;;;18.67;12.68;;;8.80;73.00;;;;;;4966065;28;20038;-83
2021/03/08 11:01:08;;;;;;;16.30;11.80;;;8.80;73.10;;;;;;4976683;28;20110;-84
2021/03/08 11:03:36;;;;;;;16.20;12.02;;;8.90;73.00;;;;;;4967529;28;20046;-83
2021/03/08 11:06:05;;;;;;;17.25;11.43;;;8.90;73.00;;;;;;4993975;28;20135;-83
2021/03/08 11:08:32;;;;;;;16.63;11.88;;;9.00;73.10;;;;;;4993439;28;20443;-84
2021/03/08 11:10:57;;;;;;;17.80;12.07;;;9.00;73.00;;;;;;4975816;28;20034;-81
2021/03/08 11:13:32;;;;;;;19.48;12.85;;;9.00;72.90;;;;;;4976659;28;20104;-83
2021/03/08 11:16:09;;;;;;;17.25;12.48;;;9.10;73.00;;;;;;4976190;28;20057;-86
2021/03/08 11:18:35;;;;;;;15.82;11.02;;;9.20;73.00;;;;;;4993253;28;20033;-84
2021/03/08 11:21:28;;;;;;;16.73;11.88;;;9.20;72.90;;;;;;4992601;28;20034;-79
2021/03/08 11:24:13;;;;;;;16.60;11.45;;;9.30;73.10;;;;;;4992170;28;20077;-78
2021/03/08 11:26:39;;;;;;;15.57;11.05;;;9.30;72.90;;;;;;4975683;28;20057;-79
2021/03/08 11:29:05;;;;;;;16.33;11.55;;;9.40;72.90;;;;;;4983549;28;20027;-79
2021/03/08 11:31:31;;;;;;;16.75;11.40;;;9.40;72.90;;;;;;4973845;28;20042;-80
2021/03/08 11:33:56;;;;;;;16.92;11.63;;;9.50;73.00;;;;;;4959274;28;20022;-81
2021/03/08 11:36:33;;;;;;;17.20;12.02;;;9.50;73.00;;;;;;4991684;28;20039;-80
2021/03/08 11:39:04;;;;;;;16.42;11.43;;;9.60;73.10;;;;;;4962046;28;20058;-80
2021/03/08 11:41:31;;;;;;;15.57;11.32;;;9.60;72.90;;;;;;4985172;28;20038;-80
2021/03/08 11:43:57;;;;;;;14.63;10.40;;;9.70;73.00;;;;;;4971876;28;20027;-80
2021/03/08 11:46:23;;;;;;;16.05;11.45;;;9.70;72.90;;;;;;4948307;28;20083;-79
2021/03/08 11:48:49;;;;;;;16.23;11.38;;;9.80;72.90;;;;;;4972848;28;20482;-80
2021/03/08 11:51:19;;;;;;;14.95;10.20;;;9.80;72.90;;;;;;4991388;28;20042;-80
2021/03/08 11:53:46;;;;;;;14.75;10.73;;;9.90;72.90;;;;;;4989303;28;20092;-80
2021/03/08 11:56:11;;;;;;;14.75;10.60;;;10.00;73.60;;;;;;4980987;28;20035;-78
2021/03/08 11:58:38;;;;;;;15.73;10.75;;;10.00;72.90;;;;;;4988907;28;20038;-79
2021/03/08 12:01:04;;;;;;;15.30;10.85;;;10.00;72.80;;;;;;4991279;28;20109;-79
2021/03/08 12:03:29;;;;;;;15.50;11.30;;;10.10;72.70;;;;;;4975643;28;20133;-80
2021/03/08 12:05:55;;;;;;;16.75;11.80;;;10.10;72.70;;;;;;4974699;28;20022;-80
2021/03/08 12:08:21;;;;;;;15.73;11.38;;;10.20;72.70;;;;;;4959426;28;20030;-79
2021/03/08 12:10:46;;;;;;;15.50;11.15;;;10.30;72.70;;;;;;4975041;28;20062;-79
2021/03/08 12:13:12;;;;;;;16.70;11.18;;;10.30;72.70;;;;;;4959141;28;20036;-79
2021/03/08 12:15:38;;;;;;;13.73;10.38;;;10.40;72.70;;;;;;4990950;28;20051;-79
2021/03/08 12:18:04;;;;;;;15.27;11.10;;;10.40;72.60;;;;;;4943265;28;20467;-79
2021/03/08 12:20:30;;;;;;;15.98;11.45;;;10.50;72.60;;;;;;4959162;28;20387;-78
2021/03/08 12:22:55;;;;;;;16.63;11.52;;;10.50;72.60;;;;;;4991189;28;20031;-79
2021/03/08 12:25:21;;;;;;;15.27;11.32;;;10.50;72.60;;;;;;4974174;28;20472;-80
2021/03/08 12:27:48;;;;;;;15.80;10.60;;;10.60;72.50;;;;;;4963081;28;20498;-80
2021/03/08 12:30:14;;;;;;;14.48;9.85;;;10.60;72.50;;;;;;5003457;28;20062;-79
2021/03/08 12:32:40;;;;;;;14.68;11.18;;;10.70;72.50;;;;;;4990833;28;20129;-79
2021/03/08 12:35:07;;;;;;;14.82;11.07;;;10.70;72.50;;;;;;4991105;28;20019;-79
2021/03/08 12:37:32;;;;;;;17.10;11.63;;;10.80;72.50;;;;;;4975295;28;20033;-79
2021/03/08 12:39:58;;;;;;;16.95;10.90;;;10.80;72.40;;;;;;4974136;28;20031;-79
2021/03/08 12:42:24;;;;;;;16.15;11.60;;;10.80;72.40;;;;;;4991432;28;20085;-78
2021/03/08 12:44:50;;;;;;;14.38;11.15;;;10.90;72.40;;;;;;4974999;28;20038;-78
2021/03/08 12:47:16;;;;;;;17.25;11.82;;;10.90;72.40;;;;;;4990389;28;20037;-78
2021/03/08 12:49:41;;;;;;;17.02;12.02;;;10.90;72.30;;;;;;4980657;28;20065;-79
2021/03/08 12:52:07;;;;;;;15.60;10.68;;;11.00;72.30;;;;;;5004743;28;20039;-79
2021/03/08 12:54:33;;;;;;;16.45;12.07;;;11.10;72.40;;;;;;4974983;28;20023;-79